Flight Track Log - Related Links

Times and Time Zones

All times are in EDT time to prevent confusion due to time zone crossing. See the AWE1913 flight status page for this flight to view local times or setup timezone preferences in your user account.

Time Position Orientation Groundspeed Altitude Reporting Facility
EDT Latitude Longitude Course Direction KTS MPH feet Rate Location/Type
Tue 07:25:30 AM 42.1975 -83.3581 90° East 156 180 1,700  Level Cleveland Center
Tue 07:26:19 AM 42.1578 -83.3564 178° South 199 229 3,100 2,121 Climbing Cleveland Center
Tue 07:27:26 AM 42.0958 -83.3311 163° South 248 285 5,800 2,578 Climbing Cleveland Center
Tue 07:28:00 AM 42.2167 -82.8858 90° East  Level FlightAware Approximate
Tue 07:28:27 AM 42.0669 -83.2347 112° Southeast 287 330 8,600  Level Cleveland Center
Tue 07:29:00 AM 42.2167 -82.7287 90° East  Level FlightAware Approximate
Tue 07:29:33 AM 42.0739 -83.1119 86° East 315 362 10,800  Level Cleveland Center
Tue 07:30:00 AM 42.2167 -82.5717 90° East  Level FlightAware Approximate
Tue 07:30:33 AM 42.1014 -82.9928 73° East 339 390 13,000  Level Cleveland Center
Tue 07:31:33 AM 42.1311 -82.8594 73° East 360 414 15,600 2,350 Climbing Cleveland Center
Tue 07:32:33 AM 42.1631 -82.7178 73° East 371 427 17,700 2,000 Climbing Cleveland Center
Tue 07:33:33 AM 42.1950 -82.5731 73° East 385 443 19,600 1,800 Climbing Cleveland Center
Tue 07:34:33 AM 42.2203 -82.4225 77° East 398 458 21,300 1,700 Climbing Cleveland Center
Tue 07:35:33 AM 42.2083 -82.2567 95° East 417 480 23,000 1,750 Climbing Cleveland Center
Tue 07:36:33 AM 42.1983 -82.0686 94° East 429 494 24,800 1,500 Climbing Cleveland Center
Tue 07:37:33 AM 42.1586 -81.9108 109° East 455 524 26,000 1,450 Climbing Cleveland Center
Tue 07:38:33 AM 42.0578 -81.7856 137° Southeast 450 518 27,700 1,350 Climbing Cleveland Center
Tue 07:39:33 AM 41.9692 -81.6836 139° Southeast 472 543 28,700 1,150 Climbing Cleveland Center
Tue 07:40:33 AM 41.8661 -81.5647 139° Southeast 486 559 30,000 1,150 Climbing Cleveland Center
Tue 07:41:33 AM 41.7608 -81.4433 139° Southeast 493 567 31,000 500 Climbing Cleveland Center
Tue 07:42:33 AM 41.6594 -81.3253 139° Southeast 493 567 31,000  Level Cleveland Center
Tue 07:43:33 AM 41.5456 -81.1964 140° Southeast 493 567 31,000 400 Level Cleveland Center
Tue 07:44:33 AM 41.4483 -81.0706 136° Southeast 493 567 31,800 1,200 Climbing Cleveland Center
Tue 07:45:33 AM 41.3550 -80.9400 134° Southeast 485 558 33,400 1,600 Climbing Cleveland Center
Tue 07:46:33 AM 41.2656 -80.8125 133° Southeast 478 550 35,000 800 Climbing Cleveland Center
Tue 07:47:33 AM 41.1761 -80.6881 134° Southeast 473 544 35,000  Level Cleveland Center
Tue 07:48:33 AM 41.0950 -80.5775 134° Southeast 473 544 35,000  Level Cleveland Center
Tue 07:49:33 AM 41.0031 -80.4539 135° Southeast 468 539 35,000  Level Cleveland Center
Tue 07:50:33 AM 40.9133 -80.3303 134° Southeast 468 539 35,000  Level Cleveland Center
Tue 07:51:33 AM 40.8211 -80.1881 131° Southeast 468 539 35,000  Level Cleveland Center
Tue 07:52:33 AM 40.7600 -80.0375 118° Southeast 468 539 35,000  Level Cleveland Center
Tue 07:53:33 AM 40.7114 -79.8956 114° Southeast 468 539 35,000  Level Cleveland Center
Tue 07:54:33 AM 40.6539 -79.7403 116° Southeast 468 539 35,000 -50 Level Cleveland Center
Tue 07:55:33 AM 40.5986 -79.5878 115° Southeast 468 539 34,900 -500 Descending Cleveland Center
Tue 07:56:33 AM 40.5431 -79.4356 116° Southeast 468 539 34,000 -900 Descending Cleveland Center
Tue 07:57:33 AM 40.4744 -79.2675 118° Southeast 468 539 33,100 -500 Descending Cleveland Center
Tue 07:58:33 AM 40.4183 -79.1131 115° Southeast 463 533 33,000 -50 Descending Cleveland Center
Tue 07:59:34 AM 40.3664 -78.9700 115° Southeast 470 541 33,000  Level Cleveland Center
Tue 08:00:33 AM 40.3244 -78.8075 109° East 470 541 33,000  Level Cleveland Center
Tue 08:01:33 AM 40.3153 -78.6361 94° East 464 534 33,000 -300 Level Cleveland Center
Tue 08:02:33 AM 40.3144 -78.4647 90° East 464 534 32,400 -1,650 Descending Cleveland Center
Tue 08:03:33 AM 40.3131 -78.2931 91° East 464 534 29,700 -2,209 Descending Cleveland Center
Tue 08:05:54 AM 40.3114 -77.8950 90° East 462 532 25,000 -1,749 Descending New York Center
Tue 08:06:52 AM 40.3392 -77.7425 77° East 426 490 23,900 -1,322 Descending New York Center
Tue 08:07:52 AM 40.3689 -77.5900 76° East 426 490 22,400 -1,388 Descending New York Center
Tue 08:08:53 AM 40.3072 -77.4642 123° Southeast 382 440 21,100 -1,140 Descending New York Center
Tue 08:09:53 AM 40.2714 -77.3219 108° East 393 452 20,100 -893 Descending New York Center
Tue 08:10:54 AM 40.2533 -77.1950 101° East 398 458 19,300 -958 Descending New York Center
Tue 08:11:52 AM 40.2306 -77.0381 101° East 398 458 18,200 -864 Descending New York Center
Tue 08:12:52 AM 40.2142 -76.9114 100° East 393 452 17,600 -800 Descending New York Center
Tue 08:13:52 AM 40.1919 -76.7764 102° East 393 452 16,600 -1,050 Descending New York Center
Tue 08:14:52 AM 40.1706 -76.6250 100° East 387 445 15,500 -984 Descending New York Center
Tue 08:15:54 AM 40.1517 -76.4983 101° East 369 425 14,600 -958 Descending New York Center
Tue 08:16:51 AM 40.1342 -76.3831 101° East 335 386 13,600 -966 Descending New York Center
Tue 08:17:52 AM 40.1200 -76.2867 101° East 313 360 12,700 -992 Descending New York Center
Tue 08:18:52 AM 40.1131 -76.1667 94° East 306 352 11,600 -1,000 Descending New York Center
Tue 08:19:52 AM 40.1031 -76.0628 97° East 296 341 10,700 -1,091 Descending New York Center
Tue 08:20:53 AM 40.0975 -75.9592 94° East 291 335 9,400 -1,289 Descending New York Center
Tue 08:21:53 AM 40.1017 -75.8619 87° East 279 321 8,100 -694 Descending New York Center
Tue 08:22:54 AM 40.1481 -75.7975 47° Northeast 256 295 8,000 -50 Descending New York Center
Tue 08:23:53 AM 40.2100 -75.7122 46° Northeast 280 322 8,000  Level New York Center
Tue 08:24:54 AM 40.2389 -75.6217 67° East 274 315 8,000  Level New York Center
Tue 08:25:52 AM 40.2319 -75.5369 96° East 257 296 8,000  Level New York Center
Tue 08:26:53 AM 40.1753 -75.4922 149° Southeast 215 247 8,000 -650 Level New York Center
Tue 08:27:52 AM 40.1125 -75.4447 150° Southeast 233 268 6,700 -1,008 Descending New York Center
Tue 08:28:52 AM 40.0642 -75.4061 149° Southeast 233 268 6,000 -344 Descending New York Center
Tue 08:29:54 AM 39.9956 -75.4017 177° South 233 268 6,000  Level New York Center
Tue 08:30:52 AM 39.9411 -75.4061 184° South 233 268 6,000 -102 Level New York Center
Tue 08:31:52 AM 39.9175 -75.4775 247° West 191 220 5,800 -618 Descending New York Center
Tue 08:34:16 AM 39.8500 -75.5667 225° Southwest 169 194 3,900 -824 Descending Philadelphia TRACON
Tue 08:35:16 AM 39.8333 -75.5167 113° Southeast 171 197 3,000 -500 Descending Philadelphia TRACON
Tue 08:36:16 AM 39.8167 -75.4667 113° Southeast 164 189 2,900 -500 Descending Philadelphia TRACON
Tue 08:37:16 AM 39.8333 -75.4000 72° East 159 183 2,000 -900 Descending Philadelphia TRACON

Login

Don't have an account? Register now (free) for customized features, flight alerts, and more!